Time;durP1;ratioP1;P1;durP2;ratioP2;P2;SDS_P1;SDS_P2;PMS_P1;PMS_P2;Temp;Humidity;BMP_temperature;BMP_pressure;BME280_temperature;BME280_humidity;BME280_pressure;Samples;Min_cycle;Max_cycle;Signal;HPM_P1;HPM_P2
2024/01/19 00:00:35;;;;;;;;;;;;;;;;;;5073773;28;19927;-87
2024/01/19 00:03:01;;;;;;;;;;;;;;;;;;5069987;28;19938;-88
2024/01/19 00:05:27;;;;;;;;;;;;;;;;;;5086548;28;19964;-88
2024/01/19 00:07:53;;;;;;;;;;;;;;;;;;5088630;28;19920;-87
2024/01/19 00:10:18;;;;;;;;;;;;;;;;;;5074628;28;19912;-87
2024/01/19 00:12:44;;;;;;;;;;;;;;;;;;5052376;28;19919;-87
2024/01/19 00:15:10;;;;;;;;;;;;;;;;;;5076296;28;19916;-87
2024/01/19 00:17:36;;;;;;;;;;;;;;;;;;5088359;28;20313;-88
2024/01/19 00:20:02;;;;;;;;;;;;;;;;;;5074116;28;19917;-87
2024/01/19 00:22:28;;;;;;;;;;;;;;;;;;5071689;28;19920;-85
2024/01/19 00:24:53;;;;;;;;;;;;;;;;;;5077235;28;19999;-87
2024/01/19 00:27:19;;;;;;;;;;;;;;;;;;5059140;28;20345;-87
2024/01/19 00:29:45;;;;;;;;;;;;;;;;;;5074686;28;20011;-87
2024/01/19 00:32:11;;;;;;;;;;;;;;;;;;5079066;28;19935;-86
2024/01/19 00:34:37;;;;;;;;;;;;;;;;;;5071121;28;19912;-87
2024/01/19 00:37:03;;;;;;;;;;;;;;;;;;5054643;28;19930;-87
2024/01/19 00:39:28;;;;;;;;;;;;;;;;;;5069276;28;19931;-87
2024/01/19 00:41:54;;;;;;;;;;;;;;;;;;5079292;28;19916;-86
2024/01/19 00:44:20;;;;;;;;;;;;;;;;;;5076922;28;20578;-86
2024/01/19 00:46:47;;;;;;;;;;;;;;;;;;5071977;28;19982;-87
2024/01/19 00:49:13;;;;;;;;;;;;;;;;;;5080714;28;19927;-87
2024/01/19 00:51:39;;;;;;;;;;;;;;;;;;5076069;28;19916;-87
2024/01/19 00:54:05;;;;;;;;;;;;;;;;;;5076281;28;20002;-88
2024/01/19 00:56:30;;;;;;;;;;;;;;;;;;5059388;28;19912;-87
2024/01/19 00:58:56;;;;;;;;;;;;;;;;;;5075498;28;20386;-86
2024/01/19 01:01:22;;;;;;;;;;;;;;;;;;5086773;28;19920;-87
2024/01/19 01:03:48;;;;;;;;;;;;;;;;;;5090520;28;19918;-88
2024/01/19 01:06:14;;;;;;;;;;;;;;;;;;5092487;28;19995;-87
2024/01/19 01:08:40;;;;;;;;;;;;;;;;;;5081555;28;20572;-88
2024/01/19 01:11:06;;;;;;;;;;;;;;;;;;5081645;28;20264;-86
2024/01/19 01:13:32;;;;;;;;;;;;;;;;;;5072311;28;19912;-87
2024/01/19 01:15:58;;;;;;;;;;;;;;;;;;5072713;28;19919;-87
2024/01/19 01:18:24;;;;;;;;;;;;;;;;;;5082633;28;19912;-87
2024/01/19 01:20:50;;;;;;;;;;;;;;;;;;5074687;28;19916;-87
2024/01/19 01:23:16;;;;;;;;;;;;;;;;;;5084954;28;20286;-86
2024/01/19 01:25:42;;;;;;;;;;;;;;;;;;5073879;28;19921;-87
2024/01/19 01:28:07;;;;;;;;;;;;;;;;;;5072674;28;19967;-87
2024/01/19 01:30:33;;;;;;;;;;;;;;;;;;5075783;28;20394;-86
2024/01/19 01:32:59;;;;;;;;;;;;;;;;;;5072026;28;19978;-87
2024/01/19 01:35:25;;;;;;;;;;;;;;;;;;5076915;28;19924;-87
2024/01/19 01:37:51;;;;;;;;;;;;;;;;;;5057078;28;19924;-87
2024/01/19 01:40:17;;;;;;;;;;;;;;;;;;5090619;28;20041;-87
2024/01/19 01:42:42;;;;;;;;;;;;;;;;;;5078707;28;19920;-86
2024/01/19 01:45:08;;;;;;;;;;;;;;;;;;5084696;28;19930;-87
2024/01/19 01:47:34;;;;;;;;;;;;;;;;;;5071612;28;19935;-87
2024/01/19 01:50:00;;;;;;;;;;;;;;;;;;5071827;28;19908;-86
2024/01/19 01:52:26;;;;;;;;;;;;;;;;;;5070734;28;20381;-87
2024/01/19 01:54:52;;;;;;;;;;;;;;;;;;5083192;28;19912;-87
2024/01/19 01:57:21;;;;;;;;;;;;;;;;;;5074433;28;19943;-86
2024/01/19 01:59:47;;;;;;;;;;;;;;;;;;5091746;28;20518;-87
2024/01/19 02:02:13;;;;;;;;;;;;;;;;;;5084671;28;19916;-86
2024/01/19 02:04:38;;;;;;;;;;;;;;;;;;5071438;28;19966;-87
2024/01/19 02:07:04;;;;;;;;;;;;;;;;;;5075589;28;19991;-86
2024/01/19 02:09:30;;;;;;;;;;;;;;;;;;5072455;28;20648;-86
2024/01/19 02:11:56;;;;;;;;;;;;;;;;;;5080397;28;19951;-87
2024/01/19 02:14:22;;;;;;;;;;;;;;;;;;5090398;28;19912;-86
2024/01/19 02:16:48;;;;;;;;;;;;;;;;;;5090926;28;19916;-87
2024/01/19 02:19:14;;;;;;;;;;;;;;;;;;5081412;28;19947;-87
2024/01/19 02:21:39;;;;;;;;;;;;;;;;;;5083103;28;19916;-87
2024/01/19 02:24:05;;;;;;;;;;;;;;;;;;5076811;28;20650;-87
2024/01/19 02:26:31;;;;;;;;;;;;;;;;;;5077738;28;19912;-87
2024/01/19 02:28:57;;;;;;;;;;;;;;;;;;5081079;28;19965;-87
2024/01/19 02:31:23;;;;;;;;;;;;;;;;;;5070977;28;19916;-87
2024/01/19 02:33:49;;;;;;;;;;;;;;;;;;5073556;28;19923;-87
2024/01/19 02:36:14;;;;;;;;;;;;;;;;;;5072392;28;19921;-87
2024/01/19 02:38:40;;;;;;;;;;;;;;;;;;5087171;28;20267;-87
2024/01/19 02:41:06;;;;;;;;;;;;;;;;;;5086941;28;19935;-87
2024/01/19 02:43:32;;;;;;;;;;;;;;;;;;5057277;28;19963;-87
2024/01/19 02:45:58;;;;;;;;;;;;;;;;;;5074017;28;19916;-87
2024/01/19 02:48:24;;;;;;;;;;;;;;;;;;5072174;28;19919;-86
2024/01/19 02:50:49;;;;;;;;;;;;;;;;;;5075438;28;19920;-87
2024/01/19 02:53:15;;;;;;;;;;;;;;;;;;5083824;28;19912;-87
2024/01/19 02:55:41;;;;;;;;;;;;;;;;;;5090006;28;19909;-88
2024/01/19 02:58:07;;;;;;;;;;;;;;;;;;5083261;28;19912;-87
2024/01/19 03:00:33;;;;;;;;;;;;;;;;;;5081587;28;19920;-87
2024/01/19 03:02:59;;;;;;;;;;;;;;;;;;5082227;28;19938;-87
2024/01/19 03:05:24;;;;;;;;;;;;;;;;;;5079461;28;19913;-87
2024/01/19 03:07:50;;;;;;;;;;;;;;;;;;5070346;28;19912;-86
2024/01/19 03:10:16;;;;;;;;;;;;;;;;;;5086721;28;20029;-86
2024/01/19 03:12:42;;;;;;;;;;;;;;;;;;5085753;28;19920;-87
2024/01/19 03:15:08;;;;;;;;;;;;;;;;;;5073164;28;20634;-87
2024/01/19 03:17:34;;;;;;;;;;;;;;;;;;5074007;28;19919;-86
2024/01/19 03:20:00;;;;;;;;;;;;;;;;;;5082728;28;19916;-87
2024/01/19 03:22:25;;;;;;;;;;;;;;;;;;5087189;28;20456;-87
2024/01/19 03:24:51;;;;;;;;;;;;;;;;;;5073507;28;20416;-87
2024/01/19 03:27:17;;;;;;;;;;;;;;;;;;5082806;28;19912;-87
2024/01/19 03:29:44;;;;;;;;;;;;;;;;;;5070420;28;19927;-87
2024/01/19 03:32:10;;;;;;;;;;;;;;;;;;5056928;28;19958;-86
2024/01/19 03:34:36;;;;;;;;;;;;;;;;;;5075428;28;20477;-86
2024/01/19 03:37:03;;;;;;;;;;;;;;;;;;5079154;28;20430;-88
2024/01/19 03:39:29;;;;;;;;;;;;;;;;;;5072256;28;19919;-87
2024/01/19 03:41:55;;;;;;;;;;;;;;;;;;5071987;28;19917;-88
2024/01/19 03:44:21;;;;;;;;;;;;;;;;;;5076092;28;19912;-87
2024/01/19 03:46:46;;;;;;;;;;;;;;;;;;5076748;28;19966;-88
2024/01/19 03:49:12;;;;;;;;;;;;;;;;;;5074942;28;19916;-88
2024/01/19 03:51:38;;;;;;;;;;;;;;;;;;5072339;28;19920;-87
2024/01/19 03:54:04;;;;;;;;;;;;;;;;;;5081429;28;19955;-87
2024/01/19 03:56:30;;;;;;;;;;;;;;;;;;5081915;28;20435;-88
2024/01/19 03:58:56;;;;;;;;;;;;;;;;;;5078529;28;19936;-87
2024/01/19 04:01:22;;;;;;;;;;;;;;;;;;5075327;28;19921;-87
2024/01/19 04:03:48;;;;;;;;;;;;;;;;;;5081482;28;19916;-87
2024/01/19 04:06:15;;;;;;;;;;;;;;;;;;5083912;28;19919;-87
2024/01/19 04:08:41;;;;;;;;;;;;;;;;;;5072529;28;19935;-87
2024/01/19 04:11:07;;;;;;;;;;;;;;;;;;5072317;28;20359;-87
2024/01/19 04:13:32;;;;;;;;;;;;;;;;;;5072043;28;20401;-88
2024/01/19 04:15:58;;;;;;;;;;;;;;;;;;5086098;28;19913;-87
2024/01/19 04:18:24;;;;;;;;;;;;;;;;;;5076794;28;19962;-86
2024/01/19 04:20:50;;;;;;;;;;;;;;;;;;5076910;28;20627;-87
2024/01/19 04:23:16;;;;;;;;;;;;;;;;;;5078402;28;19923;-86
2024/01/19 04:25:42;;;;;;;;;;;;;;;;;;5070636;28;19908;-85
2024/01/19 04:28:07;;;;;;;;;;;;;;;;;;5077908;28;19913;-86
2024/01/19 04:30:33;;;;;;;;;;;;;;;;;;5069783;28;19909;-86
2024/01/19 04:32:59;;;;;;;;;;;;;;;;;;5080104;28;19912;-87
2024/01/19 04:35:25;;;;;;;;;;;;;;;;;;5076539;28;19919;-87
2024/01/19 04:37:51;;;;;;;;;;;;;;;;;;5083477;28;19916;-86
2024/01/19 04:40:17;;;;;;;;;;;;;;;;;;5073887;28;19943;-85
2024/01/19 04:42:42;;;;;;;;;;;;;;;;;;5082428;28;19925;-85
2024/01/19 04:45:08;;;;;;;;;;;;;;;;;;5073985;28;19919;-86
2024/01/19 04:47:34;;;;;;;;;;;;;;;;;;5086898;28;19937;-86
2024/01/19 04:50:00;;;;;;;;;;;;;;;;;;5092493;28;20002;-85
2024/01/19 04:52:26;;;;;;;;;;;;;;;;;;5091629;28;19936;-85
2024/01/19 04:54:52;;;;;;;;;;;;;;;;;;5086765;28;19952;-86
2024/01/19 04:57:18;;;;;;;;;;;;;;;;;;5086771;28;20364;-85
2024/01/19 04:59:44;;;;;;;;;;;;;;;;;;5082511;28;20331;-86
2024/01/19 05:02:10;;;;;;;;;;;;;;;;;;5072681;28;20394;-85
2024/01/19 05:04:35;;;;;;;;;;;;;;;;;;5090224;28;19912;-85
2024/01/19 05:07:01;;;;;;;;;;;;;;;;;;5090081;28;19919;-86
2024/01/19 05:09:27;;;;;;;;;;;;;;;;;;5077589;28;19938;-85
2024/01/19 05:11:53;;;;;;;;;;;;;;;;;;5074925;28;19975;-85
2024/01/19 05:14:19;;;;;;;;;;;;;;;;;;5092983;28;19916;-85
2024/01/19 05:16:45;;;;;;;;;;;;;;;;;;5086113;28;19916;-88
2024/01/19 05:19:10;;;;;;;;;;;;;;;;;;5082696;28;19922;-86
2024/01/19 05:21:36;;;;;;;;;;;;;;;;;;5082083;28;19944;-85
2024/01/19 05:24:02;;;;;;;;;;;;;;;;;;5080335;28;19923;-86
2024/01/19 05:26:29;;;;;;;;;;;;;;;;;;5081089;28;19919;-86
2024/01/19 05:28:55;;;;;;;;;;;;;;;;;;5075629;28;19970;-86
2024/01/19 05:31:21;;;;;;;;;;;;;;;;;;5079539;28;19920;-88
2024/01/19 05:33:47;;;;;;;;;;;;;;;;;;5084179;28;20014;-83
2024/01/19 05:36:13;;;;;;;;;;;;;;;;;;5072866;28;19924;-85
2024/01/19 05:38:38;;;;;;;;;;;;;;;;;;5076066;28;19916;-87
2024/01/19 05:41:04;;;;;;;;;;;;;;;;;;5072629;28;20131;-86
2024/01/19 05:43:30;;;;;;;;;;;;;;;;;;5072748;28;20283;-86
2024/01/19 05:45:56;;;;;;;;;;;;;;;;;;5082353;28;19971;-87
2024/01/19 05:48:22;;;;;;;;;;;;;;;;;;5072379;28;19912;-86
2024/01/19 05:50:49;;;;;;;;;;;;;;;;;;5080024;28;19912;-86
2024/01/19 05:53:14;;;;;;;;;;;;;;;;;;5092799;28;19962;-86
2024/01/19 05:55:40;;;;;;;;;;;;;;;;;;5082766;28;20263;-86
2024/01/19 05:58:06;;;;;;;;;;;;;;;;;;5079890;28;19921;-87
2024/01/19 06:00:33;;;;;;;;;;;;;;;;;;5084427;28;19923;-83
2024/01/19 06:02:59;;;;;;;;;;;;;;;;;;5081518;28;19923;-85
2024/01/19 06:05:25;;;;;;;;;;;;;;;;;;5069112;28;20103;-85
2024/01/19 06:07:50;;;;;;;;;;;;;;;;;;5073464;28;20039;-85
2024/01/19 06:10:16;;;;;;;;;;;;;;;;;;5061236;28;19920;-79
2024/01/19 06:12:42;;;;;;;;;;;;;;;;;;5074644;28;19927;-84
2024/01/19 06:15:08;;;;;;;;;;;;;;;;;;5075085;28;19912;-84
2024/01/19 06:17:34;;;;;;;;;;;;;;;;;;5063145;28;19909;-85
2024/01/19 06:20:00;;;;;;;;;;;;;;;;;;5070216;28;19912;-84
2024/01/19 06:22:26;;;;;;;;;;;;;;;;;;5084999;28;19916;-85
2024/01/19 06:24:52;;;;;;;;;;;;;;;;;;5081786;28;19958;-84
2024/01/19 06:27:17;;;;;;;;;;;;;;;;;;5091131;28;19987;-81
2024/01/19 06:29:45;;;;;;;;;;;;;;;;;;5075311;28;19909;-84
2024/01/19 06:32:10;;;;;;;;;;;;;;;;;;5069221;28;19916;-84
2024/01/19 06:34:39;;;;;;;;;;;;;;;;;;5070539;28;19916;-84
2024/01/19 06:37:05;;;;;;;;;;;;;;;;;;5070376;28;19924;-84
2024/01/19 06:39:31;;;;;;;;;;;;;;;;;;5071036;28;20624;-84
2024/01/19 06:41:57;;;;;;;;;;;;;;;;;;5070817;28;19918;-84
2024/01/19 06:44:23;;;;;;;;;;;;;;;;;;5070608;28;19912;-84
2024/01/19 06:46:49;;;;;;;;;;;;;;;;;;5070382;28;19920;-84
2024/01/19 06:49:15;;;;;;;;;;;;;;;;;;5070361;28;20347;-83
2024/01/19 06:51:40;;;;;;;;;;;;;;;;;;5070131;28;20282;-84
2024/01/19 06:54:06;;;;;;;;;;;;;;;;;;5072910;28;20400;-82
2024/01/19 06:56:32;;;;;;;;;;;;;;;;;;5074899;28;19916;-79
2024/01/19 06:58:58;;;;;;;;;;;;;;;;;;5083465;28;20618;-82
2024/01/19 07:01:24;;;;;;;;;;;;;;;;;;5059017;28;19920;-82
2024/01/19 07:03:50;;;;;;;;;;;;;;;;;;5080382;28;19916;-82
2024/01/19 07:06:16;;;;;;;;;;;;;;;;;;5081555;28;20050;-81
2024/01/19 07:08:41;;;;;;;;;;;;;;;;;;5085772;28;19939;-81
2024/01/19 07:11:07;;;;;;;;;;;;;;;;;;5070782;28;19916;-82
2024/01/19 07:13:33;;;;;;;;;;;;;;;;;;5069597;28;19916;-81
2024/01/19 07:15:59;;;;;;;;;;;;;;;;;;5080854;28;19912;-87
2024/01/19 07:18:25;;;;;;;;;;;;;;;;;;5086221;28;19923;-81
2024/01/19 07:20:51;;;;;;;;;;;;;;;;;;5074358;28;19965;-79
2024/01/19 07:23:16;;;;;;;;;;;;;;;;;;5089941;28;20346;-79
2024/01/19 07:25:42;;;;;;;;;;;;;;;;;;5089270;28;19939;-78
2024/01/19 07:28:08;;;;;;;;;;;;;;;;;;5087908;28;19941;-78
2024/01/19 07:30:34;;;;;;;;;;;;;;;;;;5077424;28;19919;-76
2024/01/19 07:33:00;;;;;;;;;;;;;;;;;;5075907;28;19913;-76
2024/01/19 07:35:26;;;;;;;;;;;;;;;;;;5075903;28;19913;-76
2024/01/19 07:37:52;;;;;;;;;;;;;;;;;;5087001;28;19920;-76
2024/01/19 07:40:18;;;;;;;;;;;;;;;;;;5089483;28;19912;-77
2024/01/19 07:42:45;;;;;;;;;;;;;;;;;;5088726;28;21346;-76
2024/01/19 07:45:11;;;;;;;;;;;;;;;;;;5089437;28;20425;-77
2024/01/19 07:47:37;;;;;;;;;;;;;;;;;;5089289;28;20351;-76
2024/01/19 07:50:04;;;;;;;;;;;;;;;;;;5085262;28;20329;-76
2024/01/19 07:52:30;;;;;;;;;;;;;;;;;;5071426;28;19909;-76
2024/01/19 07:54:56;;;;;;;;;;;;;;;;;;5079851;28;19951;-77
2024/01/19 07:57:22;;;;;;;;;;;;;;;;;;5089275;28;20317;-77
2024/01/19 07:59:48;;;;;;;;;;;;;;;;;;5070524;28;20332;-77
2024/01/19 08:02:14;;;;;;;;;;;;;;;;;;5077321;28;19913;-76
2024/01/19 08:04:40;;;;;;;;;;;;;;;;;;5068859;28;20417;-77
2024/01/19 08:07:07;;;;;;;;;;;;;;;;;;5082944;28;20290;-76
2024/01/19 08:09:33;;;;;;;;;;;;;;;;;;5088748;28;19912;-76
2024/01/19 08:11:59;;;;;;;;;;;;;;;;;;5088777;28;20061;-77
2024/01/19 08:14:24;;;;;;;;;;;;;;;;;;5089049;28;19908;-77
2024/01/19 08:16:50;;;;;;;;;;;;;;;;;;5088534;28;19934;-76
2024/01/19 08:19:16;;;;;;;;;;;;;;;;;;5088823;28;19916;-77
2024/01/19 08:21:42;;;;;;;;;;;;;;;;;;5080701;28;20050;-77
2024/01/19 08:24:08;;;;;;;;;;;;;;;;;;5074035;28;20275;-76
2024/01/19 08:26:34;;;;;;;;;;;;;;;;;;5081957;28;19991;-76
2024/01/19 08:29:00;;;;;;;;;;;;;;;;;;5068525;28;20363;-76
2024/01/19 08:31:27;;;;;;;;;;;;;;;;;;5068177;28;19908;-77
2024/01/19 08:33:53;;;;;;;;;;;;;;;;;;5067656;28;19923;-77
2024/01/19 08:36:23;;;;;;;;;;;;;;;;;;5075096;28;19924;-77
2024/01/19 08:38:49;;;;;;;;;;;;;;;;;;5068335;28;20019;-76
2024/01/19 08:41:15;;;;;;;;;;;;;;;;;;5078155;28;20011;-76
2024/01/19 08:43:41;;;;;;;;;;;;;;;;;;5068055;28;19958;-76
2024/01/19 08:46:07;;;;;;;;;;;;;;;;;;5068469;28;19936;-77
2024/01/19 08:48:33;;;;;;;;;;;;;;;;;;5068463;28;20363;-76
2024/01/19 08:50:59;;;;;;;;;;;;;;;;;;5068100;28;20412;-76
2024/01/19 08:53:25;;;;;;;;;;;;;;;;;;5068580;28;19916;-76
2024/01/19 08:55:51;;;;;;;;;;;;;;;;;;5087047;28;19908;-76
2024/01/19 08:58:17;;;;;;;;;;;;;;;;;;5071968;28;19908;-77
2024/01/19 09:00:43;;;;;;;;;;;;;;;;;;5068215;28;19920;-77
2024/01/19 09:03:09;;;;;;;;;;;;;;;;;;5068174;28;19912;-77
2024/01/19 09:05:34;;;;;;;;;;;;;;;;;;5068075;28;20003;-76
2024/01/19 09:08:00;;;;;;;;;;;;;;;;;;5068347;28;19916;-76
2024/01/19 09:10:27;;;;;;;;;;;;;;;;;;5068139;28;19909;-76
2024/01/19 09:12:53;;;;;;;;;;;;;;;;;;5067923;28;20426;-77
2024/01/19 09:15:19;;;;;;;;;;;;;;;;;;5084912;28;19958;-76
2024/01/19 09:17:45;;;;;;;;;;;;;;;;;;5071235;28;19916;-76
2024/01/19 09:20:11;;;;;;;;;;;;;;;;;;5092013;28;19923;-76
2024/01/19 09:22:36;;;;;;;;;;;;;;;;;;5084299;28;20121;-76
2024/01/19 09:25:02;;;;;;;;;;;;;;;;;;5092152;28;19969;-76
2024/01/19 09:27:28;;;;;;;;;;;;;;;;;;5091929;28;19931;-76
2024/01/19 09:29:54;;;;;;;;;;;;;;;;;;5085744;28;19916;-76
2024/01/19 09:32:20;;;;;;;;;;;;;;;;;;5088694;28;20003;-76
2024/01/19 09:34:46;;;;;;;;;;;;;;;;;;5091389;28;20020;-76
2024/01/19 09:37:12;;;;;;;;;;;;;;;;;;5091607;28;20017;-76
2024/01/19 09:39:37;;;;;;;;;;;;;;;;;;5091849;28;19914;-77
2024/01/19 09:42:03;;;;;;;;;;;;;;;;;;5073416;28;19923;-76
2024/01/19 09:44:29;;;;;;;;;;;;;;;;;;5091538;28;19912;-76
2024/01/19 09:46:55;;;;;;;;;;;;;;;;;;5091704;28;19919;-76
2024/01/19 09:49:21;;;;;;;;;;;;;;;;;;5074137;28;19913;-76
2024/01/19 09:51:47;;;;;;;;;;;;;;;;;;5070955;28;20442;-76
2024/01/19 09:54:13;;;;;;;;;;;;;;;;;;5076972;28;19958;-76
2024/01/19 09:56:39;;;;;;;;;;;;;;;;;;5091356;28;20322;-76
2024/01/19 09:59:05;;;;;;;;;;;;;;;;;;5091272;28;19912;-76
2024/01/19 10:01:31;;;;;;;;;;;;;;;;;;5085776;28;20058;-76
2024/01/19 10:03:57;;;;;;;;;;;;;;;;;;5070716;28;19913;-76
2024/01/19 10:06:22;;;;;;;;;;;;;;;;;;5087991;28;19923;-76
2024/01/19 10:08:48;;;;;;;;;;;;;;;;;;5090998;28;19947;-76
2024/01/19 10:11:14;;;;;;;;;;;;;;;;;;5091118;28;19954;-75
2024/01/19 10:13:40;;;;;;;;;;;;;;;;;;5090880;28;19908;-75
2024/01/19 10:16:07;;;;;;;;;;;;;;;;;;5090899;28;19918;-76
2024/01/19 10:18:33;;;;;;;;;;;;;;;;;;5091073;28;19912;-76
2024/01/19 10:20:59;;;;;;;;;;;;;;;;;;5083933;28;19943;-76
2024/01/19 10:23:25;;;;;;;;;;;;;;;;;;5071656;28;19912;-76
2024/01/19 10:25:51;;;;;;;;;;;;;;;;;;5070598;28;19909;-76
2024/01/19 10:28:16;;;;;;;;;;;;;;;;;;5070288;28;20526;-75
2024/01/19 10:30:42;;;;;;;;;;;;;;;;;;5069341;28;19919;-76
2024/01/19 10:33:08;;;;;;;;;;;;;;;;;;5070595;28;19908;-76
2024/01/19 10:35:36;;;;;;;;;;;;;;;;;;5070222;28;19908;-76
2024/01/19 10:38:02;;;;;;;;;;;;;;;;;;5070070;28;20053;-75
2024/01/19 10:40:30;;;;;;;;;;;;;;;;;;5088236;28;20015;-75
2024/01/19 10:42:56;;;;;;;;;;;;;;;;;;5090555;28;20315;-76
2024/01/19 10:45:22;;;;;;;;;;;;;;;;;;5090460;28;19920;-75
2024/01/19 10:47:48;;;;;;;;;;;;;;;;;;5089764;28;19912;-75
2024/01/19 10:50:14;;;;;;;;;;;;;;;;;;5090680;28;19915;-76
2024/01/19 10:52:40;;;;;;;;;;;;;;;;;;5090104;28;19912;-75
2024/01/19 10:55:06;;;;;;;;;;;;;;;;;;5089908;28;20278;-76
2024/01/19 10:57:31;;;;;;;;;;;;;;;;;;5071609;28;19915;-76
2024/01/19 10:59:57;;;;;;;;;;;;;;;;;;5069695;28;20363;-76
2024/01/19 11:02:23;;;;;;;;;;;;;;;;;;5069801;28;20591;-76
2024/01/19 11:04:49;;;;;;;;;;;;;;;;;;5069767;28;19959;-76
2024/01/19 11:07:15;;;;;;;;;;;;;;;;;;5069740;28;19909;-76
2024/01/19 11:09:41;;;;;;;;;;;;;;;;;;5069407;28;19914;-76
2024/01/19 11:12:06;;;;;;;;;;;;;;;;;;5069643;28;19951;-76
2024/01/19 11:14:32;;;;;;;;;;;;;;;;;;5088316;28;19912;-76
2024/01/19 11:16:58;;;;;;;;;;;;;;;;;;5069732;28;20371;-76
2024/01/19 11:19:24;;;;;;;;;;;;;;;;;;5069845;28;20350;-76
2024/01/19 11:21:50;;;;;;;;;;;;;;;;;;5082526;28;19920;-76
2024/01/19 11:24:16;;;;;;;;;;;;;;;;;;5089743;28;19947;-76
2024/01/19 11:26:42;;;;;;;;;;;;;;;;;;5079835;28;20027;-75
2024/01/19 11:29:07;;;;;;;;;;;;;;;;;;5069267;28;19913;-77
2024/01/19 11:31:33;;;;;;;;;;;;;;;;;;5069581;28;19909;-77
2024/01/19 11:33:59;;;;;;;;;;;;;;;;;;5083489;28;19916;-76
2024/01/19 11:36:25;;;;;;;;;;;;;;;;;;5089301;28;19924;-76
2024/01/19 11:38:51;;;;;;;;;;;;;;;;;;5089120;28;19912;-76
2024/01/19 11:41:17;;;;;;;;;;;;;;;;;;5089149;28;20404;-76
2024/01/19 11:43:43;;;;;;;;;;;;;;;;;;5089455;28;19912;-76
2024/01/19 11:46:09;;;;;;;;;;;;;;;;;;5088829;28;19908;-76
2024/01/19 11:48:34;;;;;;;;;;;;;;;;;;5070118;28;19999;-76
2024/01/19 11:51:00;;;;;;;;;;;;;;;;;;5068890;28;19912;-76
2024/01/19 11:53:26;;;;;;;;;;;;;;;;;;5068773;28;19908;-76
2024/01/19 11:55:52;;;;;;;;;;;;;;;;;;5087776;28;19981;-76
2024/01/19 11:58:18;;;;;;;;;;;;;;;;;;5089456;28;19994;-76
2024/01/19 12:00:44;;;;;;;;;;;;;;;;;;5088514;28;19912;-76
2024/01/19 12:03:10;;;;;;;;;;;;;;;;;;5069531;28;20401;-76
2024/01/19 12:05:36;;;;;;;;;;;;;;;;;;5069106;28;20353;-76
2024/01/19 12:08:02;;;;;;;;;;;;;;;;;;5068429;28;19908;-76
2024/01/19 12:10:28;;;;;;;;;;;;;;;;;;5068378;28;19916;-76
2024/01/19 12:12:53;;;;;;;;;;;;;;;;;;5068829;28;19913;-77
2024/01/19 12:15:19;;;;;;;;;;;;;;;;;;5068436;28;19988;-76
2024/01/19 12:17:45;;;;;;;;;;;;;;;;;;5068348;28;20395;-76
2024/01/19 12:20:11;;;;;;;;;;;;;;;;;;5068525;28;20287;-77
2024/01/19 12:22:37;;;;;;;;;;;;;;;;;;5080922;28;19916;-76
2024/01/19 12:25:03;;;;;;;;;;;;;;;;;;5084065;28;19981;-76
2024/01/19 12:27:28;;;;;;;;;;;;;;;;;;5068680;28;19908;-77
2024/01/19 12:29:54;;;;;;;;;;;;;;;;;;5068155;28;20019;-77
2024/01/19 12:32:21;;;;;;;;;;;;;;;;;;5068474;28;19909;-77
2024/01/19 12:34:47;;;;;;;;;;;;;;;;;;5068347;28;19909;-75
2024/01/19 12:37:13;;;;;;;;;;;;;;;;;;5068211;28;20370;-75
2024/01/19 12:39:39;;;;;;;;;;;;;;;;;;5087626;28;20273;-75
2024/01/19 12:42:05;;;;;;;;;;;;;;;;;;5088438;28;19915;-75
2024/01/19 12:44:31;;;;;;;;;;;;;;;;;;5088610;28;19909;-77
2024/01/19 12:46:57;;;;;;;;;;;;;;;;;;5088158;28;19991;-76
2024/01/19 12:49:23;;;;;;;;;;;;;;;;;;5088561;28;19912;-75
2024/01/19 12:51:49;;;;;;;;;;;;;;;;;;5088596;28;19940;-75
2024/01/19 12:54:17;;;;;;;;;;;;;;;;;;5091940;28;19948;-75
2024/01/19 12:56:44;;;;;;;;;;;;;;;;;;5092093;28;19965;-75
2024/01/19 12:59:11;;;;;;;;;;;;;;;;;;5092659;28;19985;-76
2024/01/19 13:01:37;;;;;;;;;;;;;;;;;;5086085;28;19948;-75
2024/01/19 13:04:03;;;;;;;;;;;;;;;;;;5071838;28;19989;-75
2024/01/19 13:06:29;;;;;;;;;;;;;;;;;;5054043;28;19913;-75
2024/01/19 13:08:55;;;;;;;;;;;;;;;;;;5072087;28;19916;-76
2024/01/19 13:11:22;;;;;;;;;;;;;;;;;;5072420;28;19908;-75
2024/01/19 13:13:48;;;;;;;;;;;;;;;;;;5091962;28;20069;-75
2024/01/19 13:16:14;;;;;;;;;;;;;;;;;;5092440;28;20409;-76
2024/01/19 13:18:40;;;;;;;;;;;;;;;;;;5092091;28;20283;-76
2024/01/19 13:21:06;;;;;;;;;;;;;;;;;;5091529;28;19928;-76
2024/01/19 13:23:32;;;;;;;;;;;;;;;;;;5088580;28;19916;-76
2024/01/19 13:25:58;;;;;;;;;;;;;;;;;;5071523;28;19915;-76
2024/01/19 13:28:24;;;;;;;;;;;;;;;;;;5072102;28;19944;-76
2024/01/19 13:30:49;;;;;;;;;;;;;;;;;;5078266;28;19943;-76
2024/01/19 13:33:16;;;;;;;;;;;;;;;;;;5071684;28;20374;-76
2024/01/19 13:35:43;;;;;;;;;;;;;;;;;;5071253;28;19962;-76
2024/01/19 13:38:11;;;;;;;;;;;;;;;;;;5071558;28;19916;-76
2024/01/19 13:40:37;;;;;;;;;;;;;;;;;;5071784;28;20253;-76
2024/01/19 13:43:03;;;;;;;;;;;;;;;;;;5071280;28;19916;-76
2024/01/19 13:45:29;;;;;;;;;;;;;;;;;;5072609;28;19912;-75
2024/01/19 13:47:55;;;;;;;;;;;;;;;;;;5091645;28;19908;-76
2024/01/19 13:50:20;;;;;;;;;;;;;;;;;;5091474;28;19947;-75
2024/01/19 13:52:46;;;;;;;;;;;;;;;;;;5091165;28;19908;-75
2024/01/19 13:55:14;;;;;;;;;;;;;;;;;;5091538;28;19962;-76
2024/01/19 13:57:39;;;;;;;;;;;;;;;;;;5091722;28;19914;-76
2024/01/19 14:00:05;;;;;;;;;;;;;;;;;;5090809;28;20002;-75
2024/01/19 14:02:32;;;;;;;;;;;;;;;;;;5078979;28;19916;-76
2024/01/19 14:04:58;;;;;;;;;;;;;;;;;;5091095;28;19918;-76
2024/01/19 14:07:24;;;;;;;;;;;;;;;;;;5091098;28;19994;-75
2024/01/19 14:09:51;;;;;;;;;;;;;;;;;;5090985;28;20314;-76
2024/01/19 14:12:17;;;;;;;;;;;;;;;;;;5091543;28;19908;-76
2024/01/19 14:14:43;;;;;;;;;;;;;;;;;;5077190;28;20400;-75
2024/01/19 14:17:09;;;;;;;;;;;;;;;;;;5089418;28;19974;-76
2024/01/19 14:19:35;;;;;;;;;;;;;;;;;;5087780;28;19916;-76
2024/01/19 14:22:01;;;;;;;;;;;;;;;;;;5072524;28;19924;-76
2024/01/19 14:24:26;;;;;;;;;;;;;;;;;;5074343;28;20294;-75
2024/01/19 14:26:52;;;;;;;;;;;;;;;;;;5072986;28;19991;-75
2024/01/19 14:29:18;;;;;;;;;;;;;;;;;;5070783;28;19909;-75
2024/01/19 14:31:44;;;;;;;;;;;;;;;;;;5073902;28;19923;-76
2024/01/19 14:34:10;;;;;;;;;;;;;;;;;;5087522;28;20206;-77
2024/01/19 14:36:36;;;;;;;;;;;;;;;;;;5086652;28;19924;-87
2024/01/19 14:39:02;;;;;;;;;;;;;;;;;;5070283;28;19912;-81
2024/01/19 14:41:29;;;;;;;;;;;;;;;;;;5052556;28;19912;-82
2024/01/19 14:43:55;;;;;;;;;;;;;;;;;;5070891;28;19912;-80
2024/01/19 14:46:21;;;;;;;;;;;;;;;;;;5079446;28;19935;-77
2024/01/19 14:48:47;;;;;;;;;;;;;;;;;;5081304;28;19920;-77
2024/01/19 14:51:13;;;;;;;;;;;;;;;;;;5076206;28;19912;-86
2024/01/19 14:53:39;;;;;;;;;;;;;;;;;;5078151;28;20270;-79
2024/01/19 14:56:04;;;;;;;;;;;;;;;;;;5077519;28;19920;-75
2024/01/19 14:58:30;;;;;;;;;;;;;;;;;;5074591;28;19912;-77
2024/01/19 15:00:56;;;;;;;;;;;;;;;;;;5076400;28;20402;-77
2024/01/19 15:03:22;;;;;;;;;;;;;;;;;;5085269;28;20382;-88
2024/01/19 15:05:48;;;;;;;;;;;;;;;;;;5070596;28;19920;-84
2024/01/19 15:08:14;;;;;;;;;;;;;;;;;;5070309;28;20363;-78
2024/01/19 15:10:40;;;;;;;;;;;;;;;;;;5073709;28;20567;-78
2024/01/19 15:13:05;;;;;;;;;;;;;;;;;;5081881;28;19916;-82
2024/01/19 15:15:31;;;;;;;;;;;;;;;;;;5074013;28;19965;-76
2024/01/19 15:17:57;;;;;;;;;;;;;;;;;;5069606;28;19912;-78
2024/01/19 15:20:23;;;;;;;;;;;;;;;;;;5071505;28;20336;-77
2024/01/19 15:22:50;;;;;;;;;;;;;;;;;;5086619;28;19928;-79
2024/01/19 15:25:15;;;;;;;;;;;;;;;;;;5070873;28;20009;-77
2024/01/19 15:27:43;;;;;;;;;;;;;;;;;;5075825;28;19956;-77
2024/01/19 15:30:09;;;;;;;;;;;;;;;;;;5074223;28;19915;-77
2024/01/19 15:32:36;;;;;;;;;;;;;;;;;;5083593;28;20282;-77
2024/01/19 15:35:02;;;;;;;;;;;;;;;;;;5083344;28;20418;-78
2024/01/19 15:37:28;;;;;;;;;;;;;;;;;;5069729;28;20015;-77
2024/01/19 15:39:54;;;;;;;;;;;;;;;;;;5080390;28;20682;-77
2024/01/19 15:42:19;;;;;;;;;;;;;;;;;;5081523;28;19924;-77
2024/01/19 15:44:45;;;;;;;;;;;;;;;;;;5079638;28;19920;-78
2024/01/19 15:47:11;;;;;;;;;;;;;;;;;;5079674;28;19921;-77
2024/01/19 15:49:37;;;;;;;;;;;;;;;;;;5070940;28;20007;-77
2024/01/19 15:52:03;;;;;;;;;;;;;;;;;;5071155;28;20295;-78
2024/01/19 15:54:30;;;;;;;;;;;;;;;;;;5081035;28;19919;-77
2024/01/19 15:56:56;;;;;;;;;;;;;;;;;;5079118;28;19927;-79
2024/01/19 15:59:22;;;;;;;;;;;;;;;;;;5082544;28;19917;-79
2024/01/19 16:01:48;;;;;;;;;;;;;;;;;;5085799;28;19923;-79
2024/01/19 16:04:14;;;;;;;;;;;;;;;;;;5082503;28;20370;-79
2024/01/19 16:06:40;;;;;;;;;;;;;;;;;;5073146;28;19919;-79
2024/01/19 16:09:07;;;;;;;;;;;;;;;;;;5076601;28;19916;-79
2024/01/19 16:11:34;;;;;;;;;;;;;;;;;;5077076;28;20007;-79
2024/01/19 16:14:00;;;;;;;;;;;;;;;;;;5075560;28;19918;-79
2024/01/19 16:16:26;;;;;;;;;;;;;;;;;;5093716;28;19916;-78
2024/01/19 16:18:52;;;;;;;;;;;;;;;;;;5076067;28;19916;-79
2024/01/19 16:21:18;;;;;;;;;;;;;;;;;;5081168;28;20299;-79
2024/01/19 16:23:43;;;;;;;;;;;;;;;;;;5078519;28;20391;-79
2024/01/19 16:26:09;;;;;;;;;;;;;;;;;;5089312;28;19915;-79
2024/01/19 16:28:35;;;;;;;;;;;;;;;;;;5075157;28;20013;-79
2024/01/19 16:31:01;;;;;;;;;;;;;;;;;;5073158;28;19916;-79
2024/01/19 16:33:27;;;;;;;;;;;;;;;;;;5075085;28;20014;-78
2024/01/19 16:35:55;;;;;;;;;;;;;;;;;;5080344;28;20011;-78